Andrew J. Barberi — WYR3370 — position and weather

sailwx.info

Track history (hours):
 
Tides and Currents Weather Stations Pressure Air Temp Water Temp Dewpoint Dewpoint Depression Visibility Wind Speed Wind Dir Waves Ship Positions

Andrew J. Barberi

Owner: CITY OF NEW YORK, Brooklyn, NY. More information available from US FCC via Universal Licensing System and Coast Guard Vessel Documentation Center.

Last reported at 2017-Aug-19 05:28 UTC. Time now 2017-Aug-19 05:32 UTC.
Position N 40°39' W 074°04'.

Length 94 m; draft 4.3 m.

Type: Ship. MMSI: 367000150.

Date/timePositionNaut miles runAvg speedWind from/ knotsBaromVisibWave heightAir tempDewpointWater temp
2017-Aug-19 05:28N 40°39' W 074°04'0 0.0
2017-Aug-19 04:58N 40°39' W 074°04'0 0.0
2017-Aug-19 04:28N 40°39' W 074°04'0 0.0
2017-Aug-19 03:58N 40°39' W 074°04'0 0.1
2017-Aug-19 03:30N 40°39' W 074°04'0 0.0
2017-Aug-19 03:00N 40°39' W 074°04'4 8.6
2017-Aug-19 02:31N 40°42' W 074°01'4 8.6
2017-Aug-19 02:01N 40°39' W 074°04'0 0.0
2017-Aug-19 01:31N 40°39' W 074°04'4 8.6
2017-Aug-19 01:00N 40°42' W 074°01'4 8.5
2017-Aug-19 00:30N 40°39' W 074°04'0 0.6
2017-Aug-19 00:00N 40°39' W 074°04'4 8.0
2017-Aug-18 23:30N 40°42' W 074°01'4 8.6
2017-Aug-18 23:00N 40°39' W 074°04'4 8.6
2017-Aug-18 22:30N 40°42' W 074°01'4 8.6
2017-Aug-18 22:00N 40°39' W 074°04'4 8.6
2017-Aug-18 21:30N 40°42' W 074°01'3 5.4
2017-Aug-18 21:00N 40°40' W 074°03'1 2.1
2017-Aug-18 20:31N 40°41' W 074°02'1 1.8
2017-Aug-18 20:00N 40°40' W 074°03'2 3.5
2017-Aug-18 19:30N 40°39' W 074°04'4 8.6
2017-Aug-18 19:00N 40°42' W 074°01'4 8.7
2017-Aug-18 18:30N 40°39' W 074°04'0 0.0
2017-Aug-18 18:00N 40°39' W 074°04'0 0.0
2017-Aug-18 17:30N 40°39' W 074°04'4 8.7
2017-Aug-18 17:01N 40°42' W 074°01'4 8.6
2017-Aug-18 16:30N 40°39' W 074°04'0 0.0
2017-Aug-18 16:00N 40°39' W 074°04'0 0.0
2017-Aug-18 15:30N 40°39' W 074°04'0 0.0
2017-Aug-18 15:00N 40°39' W 074°04'0 0.0
2017-Aug-18 14:30N 40°39' W 074°04'0 0.0
2017-Aug-18 13:30N 40°39' W 074°04'4 8.6
2017-Aug-18 13:00N 40°42' W 074°01'4 8.7
2017-Aug-18 12:31N 40°39' W 074°04'4 8.6
2017-Aug-18 12:01N 40°42' W 074°01'4 8.5
2017-Aug-18 11:31N 40°39' W 074°04'0 0.1
2017-Aug-18 11:01N 40°39' W 074°04'0 0.6
2017-Aug-18 10:31N 40°39' W 074°04'0 0.4
2017-Aug-18 10:00N 40°39' W 074°04'0 0.0
2017-Aug-18 09:30N 40°39' W 074°04'0 0.0
2017-Aug-18 09:00N 40°39' W 074°04'0 0.0
2017-Aug-18 08:30N 40°39' W 074°04'0 0.0
2017-Aug-18 08:00N 40°39' W 074°04'0 0.0
2017-Aug-18 07:30N 40°39' W 074°04'0 0.0
2017-Aug-18 07:00N 40°39' W 074°04'0 0.0
2017-Aug-18 06:30N 40°39' W 074°04'0 0.0
2017-Aug-18 06:00N 40°39' W 074°04'0 0.0
2017-Aug-18 05:30N 40°39' W 074°04'0 0.0
2017-Aug-18 05:00N 40°39' W 074°04'0 0.0
2017-Aug-18 04:30N 40°39' W 074°04'0 0.0
2017-Aug-18 04:00N 40°39' W 074°04'0 0.1
2017-Aug-18 03:30N 40°39' W 074°04'0 0.0
2017-Aug-18 03:00N 40°39' W 074°04'4 8.6
2017-Aug-18 02:31N 40°42' W 074°01'4 8.6
2017-Aug-18 02:01N 40°39' W 074°04'0 0.0
2017-Aug-18 01:31N 40°39' W 074°04'4 8.6
2017-Aug-18 01:01N 40°42' W 074°01'4 8.6
2017-Aug-18 00:30N 40°39' W 074°04'1 1.0
2017-Aug-18 00:00N 40°39' W 074°04'4 7.7
2017-Aug-17 23:30N 40°42' W 074°01'4 8.6
2017-Aug-17 23:00N 40°39' W 074°04'4 8.6
2017-Aug-17 22:30N 40°42' W 074°01'4 8.6
2017-Aug-17 22:00N 40°39' W 074°04'4 8.5
2017-Aug-17 21:30N 40°42' W 074°01'4 7.0
2017-Aug-17 21:01N 40°39' W 074°03'2 4.3
2017-Aug-17 20:30N 40°41' W 074°02'1 2.3
2017-Aug-17 20:01N 40°40' W 074°03'2 3.7
2017-Aug-17 19:30N 40°39' W 074°04'4 8.7
2017-Aug-17 19:00N 40°42' W 074°01'4 8.6
2017-Aug-17 18:31N 40°39' W 074°04'0 0.1
2017-Aug-17 18:00N 40°39' W 074°04'4 8.6
2017-Aug-17 17:31N 40°42' W 074°01'4 8.6
2017-Aug-17 17:00N 40°39' W 074°04'0 0.0
2017-Aug-17 16:30N 40°39' W 074°04'4 8.7
2017-Aug-17 16:00N 40°42' W 074°01'4 8.6
2017-Aug-17 15:30N 40°39' W 074°04'0 0.0
2017-Aug-17 15:00N 40°39' W 074°04'0 0.1
2017-Aug-17 14:30N 40°39' W 074°04'0 0.1
2017-Aug-17 14:00N 40°39' W 074°04'0 0.0
2017-Aug-17 13:30N 40°39' W 074°04'4 8.6
2017-Aug-17 13:00N 40°42' W 074°01'4 8.6
2017-Aug-17 12:30N 40°39' W 074°04'4 8.6
2017-Aug-17 12:00N 40°42' W 074°01'4 8.6
2017-Aug-17 11:30N 40°39' W 074°04'0 0.2
2017-Aug-17 11:00N 40°39' W 074°04'0 0.0
2017-Aug-17 10:30N 40°39' W 074°04'0 0.0
2017-Aug-17 10:00N 40°39' W 074°04'0 0.0
2017-Aug-17 09:31N 40°39' W 074°04'0 0.0
2017-Aug-17 09:00N 40°39' W 074°04'0 0.0
2017-Aug-17 08:30N 40°39' W 074°04'0 0.0
2017-Aug-17 08:00N 40°39' W 074°04'0 0.0
2017-Aug-17 07:30N 40°39' W 074°04'0 0.0
2017-Aug-17 07:00N 40°39' W 074°04'0 0.0
2017-Aug-17 06:30N 40°39' W 074°04'0 0.0
2017-Aug-17 06:00N 40°39' W 074°04'0 0.0
2017-Aug-17 05:30N 40°39' W 074°04'0 0.0
2017-Aug-17 05:00N 40°39' W 074°04'0 0.0
2017-Aug-17 04:30N 40°39' W 074°04'0 0.0
2017-Aug-17 04:00N 40°39' W 074°04'0 0.2
2017-Aug-17 03:31N 40°39' W 074°04'0 0.0
2017-Aug-17 03:00N 40°39' W 074°04'4 8.6
2017-Aug-17 02:30N 40°42' W 074°01'4 7.8
2017-Aug-17 01:57N 40°39' W 074°04'0 0.0
2017-Aug-17 01:31N 40°39' W 074°04'4 8.6
2017-Aug-17 01:00N 40°42' W 074°01'4 8.6
2017-Aug-17 00:30N 40°39' W 074°04'0 0.1
2017-Aug-17 00:00N 40°39' W 074°04'4 8.6
2017-Aug-16 23:30N 40°42' W 074°01'4 7.7
2017-Aug-16 22:57N 40°39' W 074°04'4 9.7
2017-Aug-16 22:30N 40°42' W 074°01'4 8.6
2017-Aug-16 22:00N 40°39' W 074°04'4 8.6
2017-Aug-16 21:30N 40°42' W 074°01'3 6.0
2017-Aug-16 21:00N 40°40' W 074°03'2 3.0
2017-Aug-16 20:31N 40°41' W 074°02'1 1.9
2017-Aug-16 20:01N 40°40' W 074°03'2 3.7
2017-Aug-16 19:30N 40°39' W 074°04'4 8.6
2017-Aug-16 19:00N 40°42' W 074°01'4 8.6
2017-Aug-16 18:30N 40°39' W 074°04'0 0.0
2017-Aug-16 18:00N 40°39' W 074°04'0 0.0
2017-Aug-16 17:30N 40°39' W 074°04'4 8.7
2017-Aug-16 17:00N 40°42' W 074°01'4 8.6
2017-Aug-16 16:30N 40°39' W 074°04'0 0.3
2017-Aug-16 16:00N 40°39' W 074°04'0 0.0
2017-Aug-16 15:30N 40°39' W 074°04'0 0.0
2017-Aug-16 15:00N 40°39' W 074°04'0 0.1
2017-Aug-16 14:29N 40°39' W 074°04'0 0.0
2017-Aug-16 13:59N 40°39' W 074°04'0 0.0
2017-Aug-16 13:29N 40°39' W 074°04'0 0.0
2017-Aug-16 12:59N 40°39' W 074°04'0 0.0
2017-Aug-16 12:29N 40°39' W 074°04'0 0.0
2017-Aug-16 11:59N 40°39' W 074°04'0 0.0
2017-Aug-16 11:29N 40°39' W 074°04'0 0.0
2017-Aug-16 10:59N 40°39' W 074°04'0 0.0
2017-Aug-16 10:29N 40°39' W 074°04'0 0.0
2017-Aug-16 09:59N 40°39' W 074°04'0 0.0
2017-Aug-16 09:29N 40°39' W 074°04'0 0.0
2017-Aug-16 08:59N 40°39' W 074°04'0 0.0
2017-Aug-16 08:29N 40°39' W 074°04'0 0.0
2017-Aug-16 07:59N 40°39' W 074°04'0 0.0
2017-Aug-16 07:29N 40°39' W 074°04'0 0.0
2017-Aug-16 06:59N 40°39' W 074°04'0 0.0
2017-Aug-16 06:29N 40°39' W 074°04'0 0.0
2017-Aug-16 05:59N 40°39' W 074°04'0 0.0
2017-Aug-16 05:29N 40°39' W 074°04'0 0.0
2017-Aug-16 04:59N 40°39' W 074°04'0 0.0
2017-Aug-16 04:29N 40°39' W 074°04'0 0.0
2017-Aug-16 03:59N 40°39' W 074°04'0 0.0
2017-Aug-16 03:29N 40°39' W 074°04'0 0.0
2017-Aug-16 02:59N 40°39' W 074°04'0 0.0
2017-Aug-16 02:29N 40°39' W 074°04'0 0.0
2017-Aug-16 01:59N 40°39' W 074°04'0 0.0
2017-Aug-16 01:29N 40°39' W 074°04'0 0.0
2017-Aug-16 00:59N 40°39' W 074°04'0 0.0
2017-Aug-16 00:29N 40°39' W 074°04'0 0.0
2017-Aug-15 23:59N 40°39' W 074°04'0 0.0
2017-Aug-15 23:29N 40°39' W 074°04'0 0.0
2017-Aug-15 22:59N 40°39' W 074°04'0 0.0
2017-Aug-15 22:29N 40°39' W 074°04'0 0.0
2017-Aug-15 21:59N 40°39' W 074°04'0 0.0
2017-Aug-15 21:29N 40°39' W 074°04'0 0.0
2017-Aug-15 20:59N 40°39' W 074°04'0 0.0
2017-Aug-15 20:29N 40°39' W 074°04'0 0.0
2017-Aug-15 19:59N 40°39' W 074°04'0 0.0
2017-Aug-15 19:29N 40°39' W 074°04'0 0.0
2017-Aug-15 18:59N 40°39' W 074°04'0 0.0
2017-Aug-15 18:29N 40°39' W 074°04'0 0.0
2017-Aug-15 17:59N 40°39' W 074°04'0 0.0
2017-Aug-15 17:29N 40°39' W 074°04'0 0.0
2017-Aug-15 16:59N 40°39' W 074°04'0 0.0
2017-Aug-15 16:29N 40°39' W 074°04'0 0.0
2017-Aug-15 15:59N 40°39' W 074°04'0 0.0
2017-Aug-15 15:29N 40°39' W 074°04'0 0.0
2017-Aug-15 14:59N 40°39' W 074°04'0 0.0
2017-Aug-15 14:29N 40°39' W 074°04'0 0.0
2017-Aug-15 13:59N 40°39' W 074°04'0 0.0
2017-Aug-15 13:29N 40°39' W 074°04'0 0.0
2017-Aug-15 12:59N 40°39' W 074°04'0 0.0
2017-Aug-15 12:29N 40°39' W 074°04'0 0.0
2017-Aug-15 11:59N 40°39' W 074°04'0 0.0
2017-Aug-15 11:29N 40°39' W 074°04'0 0.0
2017-Aug-15 10:59N 40°39' W 074°04'0 0.0
2017-Aug-15 10:29N 40°39' W 074°04'0 0.0
2017-Aug-15 09:59N 40°39' W 074°04'0 0.0
2017-Aug-15 09:29N 40°39' W 074°04'0 0.0
2017-Aug-15 08:59N 40°39' W 074°04'0 0.0
2017-Aug-15 08:29N 40°39' W 074°04'0 0.0
2017-Aug-15 07:59N 40°39' W 074°04'0 0.0
2017-Aug-15 07:29N 40°39' W 074°04'0 0.0
2017-Aug-15 06:59N 40°39' W 074°04'0 0.0
2017-Aug-15 06:29N 40°39' W 074°04'0 0.0
2017-Aug-15 05:59N 40°39' W 074°04'0 0.0
2017-Aug-15 05:29N 40°39' W 074°04'0 0.0
2017-Aug-15 04:59N 40°39' W 074°04'0 0.0
2017-Aug-15 04:29N 40°39' W 074°04'0 0.0
2017-Aug-15 03:59N 40°39' W 074°04'0 0.0
2017-Aug-15 03:29N 40°39' W 074°04'0 0.0
2017-Aug-15 02:56N 40°39' W 074°04'0 0.0
2017-Aug-15 02:29N 40°39' W 074°04'0 0.0
2017-Aug-15 01:59N 40°39' W 074°04'0 0.0
2017-Aug-15 01:29N 40°39' W 074°04'0 0.0
2017-Aug-15 00:59N 40°39' W 074°04'0 0.0
2017-Aug-15 00:29N 40°39' W 074°04'0 0.0
2017-Aug-14 23:59N 40°39' W 074°04'0 0.0
2017-Aug-14 23:29N 40°39' W 074°04'0 0.0
2017-Aug-14 22:59N 40°39' W 074°04'0 0.0
2017-Aug-14 22:29N 40°39' W 074°04'0 0.0
2017-Aug-14 21:56N 40°39' W 074°04'0 0.0
2017-Aug-14 21:29N 40°39' W 074°04'0 0.0
2017-Aug-14 20:59N 40°39' W 074°04'0 0.0
2017-Aug-14 20:29N 40°39' W 074°04'0 0.0
2017-Aug-14 19:59N 40°39' W 074°04'0 0.0
2017-Aug-14 19:29N 40°39' W 074°04'0 0.0
2017-Aug-14 18:59N 40°39' W 074°04'0 0.0
2017-Aug-14 18:29N 40°39' W 074°04'0 0.0
2017-Aug-14 17:59N 40°39' W 074°04'0 0.0
2017-Aug-14 17:29N 40°39' W 074°04'0 0.0
2017-Aug-14 16:56N 40°39' W 074°04'0 0.0
2017-Aug-14 16:29N 40°39' W 074°04'0 0.0
2017-Aug-14 15:56N 40°39' W 074°04'0 0.0
2017-Aug-14 15:29N 40°39' W 074°04'0 0.0
2017-Aug-14 14:59N 40°39' W 074°04'0 0.0
2017-Aug-14 14:29N 40°39' W 074°04'0 0.0
2017-Aug-14 13:59N 40°39' W 074°04'0 0.0
2017-Aug-14 13:29N 40°39' W 074°04'0 0.0
2017-Aug-14 12:59N 40°39' W 074°04'0 0.0
2017-Aug-14 12:26N 40°39' W 074°04'0 0.0
2017-Aug-14 11:59N 40°39' W 074°04'0 0.0
2017-Aug-14 11:29N 40°39' W 074°04'0 0.0
2017-Aug-14 10:59N 40°39' W 074°04'0 0.0
2017-Aug-14 10:29N 40°39' W 074°04'0 0.0
2017-Aug-14 09:56N 40°39' W 074°04'0 0.0
2017-Aug-14 09:29N 40°39' W 074°04'0 0.0
2017-Aug-14 08:59N 40°39' W 074°04'0 0.0
2017-Aug-14 08:26N 40°39' W 074°04'0 0.0
2017-Aug-14 07:59N 40°39' W 074°04'0 0.0
2017-Aug-14 07:29N 40°39' W 074°04'0 0.0
2017-Aug-14 06:59N 40°39' W 074°04'0 0.0
2017-Aug-14 06:29N 40°39' W 074°04'0 0.0
2017-Aug-14 05:59N 40°39' W 074°04'0 0.0
2017-Aug-14 05:29N 40°39' W 074°04'0 0.0
2017-Aug-14 04:56N 40°39' W 074°04'0 0.0
2017-Aug-14 04:29N 40°39' W 074°04'0 0.0
2017-Aug-14 03:59N 40°39' W 074°04'0 0.0
2017-Aug-14 03:29N 40°39' W 074°04'0 0.0
2017-Aug-14 02:59N 40°39' W 074°04'0 0.0
2017-Aug-14 02:29N 40°39' W 074°04'0 0.0
2017-Aug-14 01:59N 40°39' W 074°04'0 0.0
2017-Aug-14 01:29N 40°39' W 074°04'0 0.0
2017-Aug-14 00:59N 40°39' W 074°04'0 0.0
2017-Aug-14 00:29N 40°39' W 074°04'0 0.0
2017-Aug-13 23:59N 40°39' W 074°04'0 0.0
2017-Aug-13 23:29N 40°39' W 074°04'0 0.0
2017-Aug-13 22:59N 40°39' W 074°04'0 0.0
2017-Aug-13 22:29N 40°39' W 074°04'0 0.0
2017-Aug-13 21:59N 40°39' W 074°04'0 0.0
2017-Aug-13 21:29N 40°39' W 074°04'0 0.0
2017-Aug-13 20:59N 40°39' W 074°04'0 0.0
2017-Aug-13 20:29N 40°39' W 074°04'0 0.0
2017-Aug-13 19:59N 40°39' W 074°04'0 0.0
2017-Aug-13 19:29N 40°39' W 074°04'0 0.0
2017-Aug-13 18:59N 40°39' W 074°04'0 0.0
2017-Aug-13 18:26N 40°39' W 074°04'0 0.0
2017-Aug-13 17:59N 40°39' W 074°04'0 0.0
2017-Aug-13 17:29N 40°39' W 074°04'0 0.0
2017-Aug-13 16:59N 40°39' W 074°04'0 0.0
2017-Aug-13 16:29N 40°39' W 074°04'0 0.0
2017-Aug-13 15:59N 40°39' W 074°04'0 0.0
2017-Aug-13 15:29N 40°39' W 074°04'0 0.0
2017-Aug-13 14:59N 40°39' W 074°04'0 0.0
2017-Aug-13 14:29N 40°39' W 074°04'0 0.0
2017-Aug-13 13:59N 40°39' W 074°04'0 0.0
2017-Aug-13 13:29N 40°39' W 074°04'0 0.0
2017-Aug-13 12:59N 40°39' W 074°04'0 0.0
2017-Aug-13 12:29N 40°39' W 074°04'0 0.0
2017-Aug-13 11:59N 40°39' W 074°04'0 0.0
2017-Aug-13 11:29N 40°39' W 074°04'0 0.0
2017-Aug-13 10:59N 40°39' W 074°04'0 0.0
2017-Aug-13 10:29N 40°39' W 074°04'0 0.0
2017-Aug-13 09:59N 40°39' W 074°04'0 0.0
2017-Aug-13 09:29N 40°39' W 074°04'0 0.0
2017-Aug-13 08:59N 40°39' W 074°04'0 0.0
2017-Aug-13 08:29N 40°39' W 074°04'0 0.0
2017-Aug-13 07:59N 40°39' W 074°04'0 0.0
2017-Aug-13 07:29N 40°39' W 074°04'0 0.0
2017-Aug-13 06:59N 40°39' W 074°04'0 0.0
2017-Aug-13 06:29N 40°39' W 074°04'0 0.0
2017-Aug-13 05:59N 40°39' W 074°04'0 0.0
2017-Aug-13 05:29N 40°39' W 074°04'0 0.0
2017-Aug-13 04:59N 40°39' W 074°04'0 0.0
2017-Aug-13 04:29N 40°39' W 074°04'0 0.0
2017-Aug-13 03:59N 40°39' W 074°04'0 0.0
2017-Aug-13 03:29N 40°39' W 074°04'0 0.0
2017-Aug-13 02:59N 40°39' W 074°04'0 0.0
2017-Aug-13 02:26N 40°39' W 074°04'0 0.0
2017-Aug-13 01:59N 40°39' W 074°04'0 0.0
2017-Aug-13 01:29N 40°39' W 074°04'0 0.0
2017-Aug-13 00:56N 40°39' W 074°04'0 0.0
2017-Aug-13 00:29N 40°39' W 074°04'0 0.0
2017-Aug-12 23:59N 40°39' W 074°04'0 0.0
2017-Aug-12 23:29N 40°39' W 074°04'0 0.0
2017-Aug-12 22:59N 40°39' W 074°04'0 0.0
2017-Aug-12 22:29N 40°39' W 074°04'0 0.0
2017-Aug-12 21:59N 40°39' W 074°04'0 0.0
2017-Aug-12 21:29N 40°39' W 074°04'0 0.0
2017-Aug-12 20:59N 40°39' W 074°04'0 0.0
2017-Aug-12 20:29N 40°39' W 074°04'0 0.0
2017-Aug-12 19:59N 40°39' W 074°04'0 0.0
2017-Aug-12 19:29N 40°39' W 074°04'0 0.0
2017-Aug-12 18:59N 40°39' W 074°04'0 0.0
2017-Aug-12 18:26N 40°39' W 074°04'0 0.0
2017-Aug-12 17:59N 40°39' W 074°04'0 0.0
2017-Aug-12 17:29N 40°39' W 074°04'0 0.0
2017-Aug-12 16:59N 40°39' W 074°04'0 0.0
2017-Aug-12 16:29N 40°39' W 074°04'0 0.0
2017-Aug-12 15:59N 40°39' W 074°04'0 0.0
2017-Aug-12 15:29N 40°39' W 074°04'0 0.0
2017-Aug-12 14:59N 40°39' W 074°04'0 0.0
2017-Aug-12 14:29N 40°39' W 074°04'0 0.0
2017-Aug-12 13:59N 40°39' W 074°04'0 0.0
2017-Aug-12 13:29N 40°39' W 074°04'0 0.0
2017-Aug-12 12:59N 40°39' W 074°04'0 0.0
2017-Aug-12 12:29N 40°39' W 074°04'0 0.0
2017-Aug-12 11:59N 40°39' W 074°04'0 0.0
2017-Aug-12 11:29N 40°39' W 074°04'0 0.0
2017-Aug-12 10:59N 40°39' W 074°04'0 0.0
2017-Aug-12 10:29N 40°39' W 074°04'0 0.0
2017-Aug-12 09:59N 40°39' W 074°04'0 0.0
2017-Aug-12 09:29N 40°39' W 074°04'0 0.0
2017-Aug-12 08:59N 40°39' W 074°04'0 0.0
2017-Aug-12 08:29N 40°39' W 074°04'0 0.0
2017-Aug-12 07:59N 40°39' W 074°04'0 0.0
2017-Aug-12 07:29N 40°39' W 074°04'0 0.0
2017-Aug-12 06:59N 40°39' W 074°04'0 0.0
2017-Aug-12 06:29N 40°39' W 074°04'0 0.0
2017-Aug-12 05:59N 40°39' W 074°04'0 0.0
2017-Aug-12 05:29N 40°39' W 074°04'0 0.0
2017-Aug-12 04:59N 40°39' W 074°04'0 0.0
2017-Aug-12 04:29N 40°39' W 074°04'0 0.0
2017-Aug-12 03:59N 40°39' W 074°04'0 0.0
2017-Aug-12 03:29N 40°39' W 074°04'0 0.0
2017-Aug-12 02:59N 40°39' W 074°04'0 0.0
2017-Aug-12 02:29N 40°39' W 074°04'0 0.0
2017-Aug-12 01:59N 40°39' W 074°04'0 0.0
2017-Aug-12 01:29N 40°39' W 074°04'0 0.0
2017-Aug-12 00:59N 40°39' W 074°04'0 0.0
2017-Aug-12 00:29N 40°39' W 074°04'0 0.0
2017-Aug-11 23:59N 40°39' W 074°04'0 0.0
2017-Aug-11 23:29N 40°39' W 074°04'0 0.0
2017-Aug-11 22:59N 40°39' W 074°04'0 0.0
2017-Aug-11 22:29N 40°39' W 074°04'0 0.0
2017-Aug-11 21:59N 40°39' W 074°04'0 0.0
2017-Aug-11 21:29N 40°39' W 074°04'0 0.0
2017-Aug-11 20:59N 40°39' W 074°04'0 0.0
2017-Aug-11 20:29N 40°39' W 074°04'0 0.0
2017-Aug-11 19:59N 40°39' W 074°04'0 0.0
2017-Aug-11 19:29N 40°39' W 074°04'0 0.0
2017-Aug-11 18:59N 40°39' W 074°04'0 0.0
2017-Aug-11 18:29N 40°39' W 074°04'0 0.0
2017-Aug-11 17:59N 40°39' W 074°04'0 0.0
2017-Aug-11 17:26N 40°39' W 074°04'0 0.0
2017-Aug-11 16:59N 40°39' W 074°04'0 0.0
2017-Aug-11 16:29N 40°39' W 074°04'0 0.0
2017-Aug-11 15:59N 40°39' W 074°04'0 0.0
2017-Aug-11 15:29N 40°39' W 074°04'0 0.0
2017-Aug-11 14:59N 40°39' W 074°04'0 0.0
2017-Aug-11 14:29N 40°39' W 074°04'0 0.0
2017-Aug-11 13:29N 40°39' W 074°04'0 0.0
2017-Aug-11 12:59N 40°39' W 074°04'0 0.0
2017-Aug-11 12:29N 40°39' W 074°04'0 0.0
2017-Aug-11 11:59N 40°39' W 074°04'0 0.0
2017-Aug-11 11:29N 40°39' W 074°04'0 0.0
2017-Aug-11 10:59N 40°39' W 074°04'0 0.0
2017-Aug-11 10:29N 40°39' W 074°04'0 0.0
2017-Aug-11 09:59N 40°39' W 074°04'0 0.0
2017-Aug-11 09:29N 40°39' W 074°04'0 0.0
2017-Aug-11 08:59N 40°39' W 074°04'0 0.0
2017-Aug-11 08:29N 40°39' W 074°04'0 0.0
2017-Aug-11 07:59N 40°39' W 074°04'0 0.0
2017-Aug-11 07:29N 40°39' W 074°04'0 0.0
2017-Aug-11 06:59N 40°39' W 074°04'0 0.0
2017-Aug-11 06:29N 40°39' W 074°04'0 0.0
2017-Aug-11 05:59N 40°39' W 074°04'0 0.0
2017-Aug-11 05:29N 40°39' W 074°04'0 0.0
2017-Aug-11 04:59N 40°39' W 074°04'0 0.0
2017-Aug-11 04:29N 40°39' W 074°04'0 0.0
2017-Aug-11 03:59N 40°39' W 074°04'0 0.0
2017-Aug-11 03:29N 40°39' W 074°04'0 0.0
2017-Aug-11 02:59N 40°39' W 074°04'0 0.0
2017-Aug-11 02:29N 40°39' W 074°04'0 0.0
2017-Aug-11 01:59N 40°39' W 074°04'0 0.0
2017-Aug-11 01:29N 40°39' W 074°04'0 0.0
2017-Aug-11 00:59N 40°39' W 074°04'0 0.0
2017-Aug-11 00:29N 40°39' W 074°04'0 0.0
2017-Aug-10 23:59N 40°39' W 074°04'0 0.0
2017-Aug-10 23:29N 40°39' W 074°04'0 0.0
2017-Aug-10 22:59N 40°39' W 074°04'0 0.0
2017-Aug-10 22:29N 40°39' W 074°04'0 0.0
2017-Aug-10 21:59N 40°39' W 074°04'0 0.0
2017-Aug-10 21:29N 40°39' W 074°04'0 0.0
2017-Aug-10 20:59N 40°39' W 074°04'0 0.0
2017-Aug-10 20:29N 40°39' W 074°04'0 0.0
2017-Aug-10 19:59N 40°39' W 074°04'0 0.0
2017-Aug-10 19:29N 40°39' W 074°04'0 0.0
2017-Aug-10 18:59N 40°39' W 074°04'0 0.0
2017-Aug-10 18:29N 40°39' W 074°04'0 0.0
2017-Aug-10 17:59N 40°39' W 074°04'0 0.0
2017-Aug-10 17:29N 40°39' W 074°04'0 0.0
2017-Aug-10 16:59N 40°39' W 074°04'0 0.0
2017-Aug-10 16:29N 40°39' W 074°04'0 0.0
2017-Aug-10 15:59N 40°39' W 074°04'0 0.0
2017-Aug-10 15:29N 40°39' W 074°04'0 0.0
2017-Aug-10 14:59N 40°39' W 074°04'0 0.0
2017-Aug-10 14:29N 40°39' W 074°04'0 0.0
2017-Aug-10 13:56N 40°39' W 074°04'0 0.0
2017-Aug-10 13:29N 40°39' W 074°04'0 0.0
2017-Aug-10 12:59N 40°39' W 074°04'0 0.0
2017-Aug-10 12:29N 40°39' W 074°04'0 0.0
2017-Aug-10 11:59N 40°39' W 074°04'0 0.0
2017-Aug-10 11:29N 40°39' W 074°04'0 0.0
2017-Aug-10 10:59N 40°39' W 074°04'0 0.0
2017-Aug-10 10:29N 40°39' W 074°04'0 0.0
2017-Aug-10 09:59N 40°39' W 074°04'0 0.0
2017-Aug-10 09:29N 40°39' W 074°04'0 0.0
2017-Aug-10 08:59N 40°39' W 074°04'0 0.0
2017-Aug-10 08:29N 40°39' W 074°04'0 0.0
2017-Aug-10 07:59N 40°39' W 074°04'0 0.0
2017-Aug-10 07:29N 40°39' W 074°04'0 0.0
2017-Aug-10 06:59N 40°39' W 074°04'0 0.0
2017-Aug-10 06:29N 40°39' W 074°04'0 0.0
2017-Aug-10 05:59N 40°39' W 074°04'0 0.0
2017-Aug-10 05:29N 40°39' W 074°04'0 0.0
2017-Aug-10 04:59N 40°39' W 074°04'0 0.0
2017-Aug-10 04:29N 40°39' W 074°04'0 0.0
2017-Aug-10 03:59N 40°39' W 074°04'0 0.0
2017-Aug-10 03:29N 40°39' W 074°04'0 0.0
2017-Aug-10 02:56N 40°39' W 074°04'0 0.0
2017-Aug-10 02:29N 40°39' W 074°04'0 0.0
2017-Aug-10 01:59N 40°39' W 074°04'0 0.0
2017-Aug-10 01:29N 40°39' W 074°04'0 0.0
2017-Aug-10 00:59N 40°39' W 074°04'0 0.0
2017-Aug-10 00:29N 40°39' W 074°04'0 0.0
2017-Aug-09 23:59N 40°39' W 074°04'0 0.0
2017-Aug-09 23:29N 40°39' W 074°04'0 0.0
2017-Aug-09 22:59N 40°39' W 074°04'0 0.0
2017-Aug-09 22:29N 40°39' W 074°04'0 0.0
2017-Aug-09 21:59N 40°39' W 074°04'0 0.0
2017-Aug-09 21:29N 40°39' W 074°04'0 0.0
2017-Aug-09 20:59N 40°39' W 074°04'0 0.0
2017-Aug-09 20:29N 40°39' W 074°04'0 0.0
2017-Aug-09 19:59N 40°39' W 074°04'0 0.0
2017-Aug-09 19:29N 40°39' W 074°04'0 0.0
2017-Aug-09 18:59N 40°39' W 074°04'0 0.0
2017-Aug-09 18:29N 40°39' W 074°04'0 0.0
2017-Aug-09 17:59N 40°39' W 074°04'0 0.0
2017-Aug-09 17:29N 40°39' W 074°04'0 0.0
2017-Aug-09 16:59N 40°39' W 074°04'0 0.0
2017-Aug-09 16:26N 40°39' W 074°04'0 0.0
2017-Aug-09 15:59N 40°39' W 074°04'0 0.0
2017-Aug-09 15:29N 40°39' W 074°04'0 0.0
2017-Aug-09 14:59N 40°39' W 074°04'0 0.0
2017-Aug-09 14:29N 40°39' W 074°04'0 0.0
2017-Aug-09 13:59N 40°39' W 074°04'0 0.0
2017-Aug-09 13:29N 40°39' W 074°04'0 0.0
2017-Aug-09 12:59N 40°39' W 074°04'0 0.0
2017-Aug-09 12:29N 40°39' W 074°04'0 0.0
2017-Aug-09 11:59N 40°39' W 074°04'0 0.0
2017-Aug-09 11:29N 40°39' W 074°04'0 0.0
2017-Aug-09 10:59N 40°39' W 074°04'0 0.0
2017-Aug-09 10:29N 40°39' W 074°04'0 0.0
2017-Aug-09 09:59N 40°39' W 074°04'0 0.0
2017-Aug-09 09:26N 40°39' W 074°04'0 0.0
2017-Aug-09 08:59N 40°39' W 074°04'0 0.0
2017-Aug-09 08:26N 40°39' W 074°04'0 0.0
2017-Aug-09 07:59N 40°39' W 074°04'0 0.0
2017-Aug-09 07:29N 40°39' W 074°04'0 0.0
2017-Aug-09 06:59N 40°39' W 074°04'0 0.0
2017-Aug-09 06:29N 40°39' W 074°04'0 0.0
2017-Aug-09 05:59N 40°39' W 074°04'0 0.0
2017-Aug-09 05:29N 40°39' W 074°04'  
Track history (hours):
 
Tides and Currents Weather Stations Pressure Air Temp Water Temp Dewpoint Dewpoint Depression Visibility Wind Speed Wind Dir Waves Ship Positions

Andrew J. Barberi

Owner: CITY OF NEW YORK, Brooklyn, NY. More information available from US FCC via Universal Licensing System and Coast Guard Vessel Documentation Center.

Last reported at 2017-Aug-19 05:28 UTC. Time now 2017-Aug-19 05:32 UTC.
Position N 40°39' W 074°04'.

Length 94 m; draft 4.3 m.

Type: Ship. MMSI: 367000150.

Date/timePositionNaut miles runAvg speedWind from/ knotsBaromVisibWave heightAir tempDewpointWater temp
2017-Aug-19 05:28N 40°39' W 074°04'0 0.0
2017-Aug-19 04:58N 40°39' W 074°04'0 0.0
2017-Aug-19 04:28N 40°39' W 074°04'0 0.0
2017-Aug-19 03:58N 40°39' W 074°04'0 0.1
2017-Aug-19 03:30N 40°39' W 074°04'0 0.0
2017-Aug-19 03:00N 40°39' W 074°04'4 8.6
2017-Aug-19 02:31N 40°42' W 074°01'4 8.6
2017-Aug-19 02:01N 40°39' W 074°04'0 0.0
2017-Aug-19 01:31N 40°39' W 074°04'4 8.6
2017-Aug-19 01:00N 40°42' W 074°01'4 8.5
2017-Aug-19 00:30N 40°39' W 074°04'0 0.6
2017-Aug-19 00:00N 40°39' W 074°04'4 8.0
2017-Aug-18 23:30N 40°42' W 074°01'4 8.6
2017-Aug-18 23:00N 40°39' W 074°04'4 8.6
2017-Aug-18 22:30N 40°42' W 074°01'4 8.6
2017-Aug-18 22:00N 40°39' W 074°04'4 8.6
2017-Aug-18 21:30N 40°42' W 074°01'3 5.4
2017-Aug-18 21:00N 40°40' W 074°03'1 2.1
2017-Aug-18 20:31N 40°41' W 074°02'1 1.8
2017-Aug-18 20:00N 40°40' W 074°03'2 3.5
2017-Aug-18 19:30N 40°39' W 074°04'4 8.6
2017-Aug-18 19:00N 40°42' W 074°01'4 8.7
2017-Aug-18 18:30N 40°39' W 074°04'0 0.0
2017-Aug-18 18:00N 40°39' W 074°04'0 0.0
2017-Aug-18 17:30N 40°39' W 074°04'4 8.7
2017-Aug-18 17:01N 40°42' W 074°01'4 8.6
2017-Aug-18 16:30N 40°39' W 074°04'0 0.0
2017-Aug-18 16:00N 40°39' W 074°04'0 0.0
2017-Aug-18 15:30N 40°39' W 074°04'0 0.0
2017-Aug-18 15:00N 40°39' W 074°04'0 0.0
2017-Aug-18 14:30N 40°39' W 074°04'0 0.0
2017-Aug-18 13:30N 40°39' W 074°04'4 8.6
2017-Aug-18 13:00N 40°42' W 074°01'4 8.7
2017-Aug-18 12:31N 40°39' W 074°04'4 8.6
2017-Aug-18 12:01N 40°42' W 074°01'4 8.5
2017-Aug-18 11:31N 40°39' W 074°04'0 0.1
2017-Aug-18 11:01N 40°39' W 074°04'0 0.6
2017-Aug-18 10:31N 40°39' W 074°04'0 0.4
2017-Aug-18 10:00N 40°39' W 074°04'0 0.0
2017-Aug-18 09:30N 40°39' W 074°04'0 0.0
2017-Aug-18 09:00N 40°39' W 074°04'0 0.0
2017-Aug-18 08:30N 40°39' W 074°04'0 0.0
2017-Aug-18 08:00N 40°39' W 074°04'0 0.0
2017-Aug-18 07:30N 40°39' W 074°04'0 0.0
2017-Aug-18 07:00N 40°39' W 074°04'0 0.0
2017-Aug-18 06:30N 40°39' W 074°04'0 0.0
2017-Aug-18 06:00N 40°39' W 074°04'0 0.0
2017-Aug-18 05:30N 40°39' W 074°04'0 0.0
2017-Aug-18 05:00N 40°39' W 074°04'0 0.0
2017-Aug-18 04:30N 40°39' W 074°04'0 0.0
2017-Aug-18 04:00N 40°39' W 074°04'0 0.1
2017-Aug-18 03:30N 40°39' W 074°04'0 0.0
2017-Aug-18 03:00N 40°39' W 074°04'4 8.6
2017-Aug-18 02:31N 40°42' W 074°01'4 8.6
2017-Aug-18 02:01N 40°39' W 074°04'0 0.0
2017-Aug-18 01:31N 40°39' W 074°04'4 8.6
2017-Aug-18 01:01N 40°42' W 074°01'4 8.6
2017-Aug-18 00:30N 40°39' W 074°04'1 1.0
2017-Aug-18 00:00N 40°39' W 074°04'4 7.7
2017-Aug-17 23:30N 40°42' W 074°01'4 8.6
2017-Aug-17 23:00N 40°39' W 074°04'4 8.6
2017-Aug-17 22:30N 40°42' W 074°01'4 8.6
2017-Aug-17 22:00N 40°39' W 074°04'4 8.5
2017-Aug-17 21:30N 40°42' W 074°01'4 7.0
2017-Aug-17 21:01N 40°39' W 074°03'2 4.3
2017-Aug-17 20:30N 40°41' W 074°02'1 2.3
2017-Aug-17 20:01N 40°40' W 074°03'2 3.7
2017-Aug-17 19:30N 40°39' W 074°04'4 8.7
2017-Aug-17 19:00N 40°42' W 074°01'4 8.6
2017-Aug-17 18:31N 40°39' W 074°04'0 0.1
2017-Aug-17 18:00N 40°39' W 074°04'4 8.6
2017-Aug-17 17:31N 40°42' W 074°01'4 8.6
2017-Aug-17 17:00N 40°39' W 074°04'0 0.0
2017-Aug-17 16:30N 40°39' W 074°04'4 8.7
2017-Aug-17 16:00N 40°42' W 074°01'4 8.6
2017-Aug-17 15:30N 40°39' W 074°04'0 0.0
2017-Aug-17 15:00N 40°39' W 074°04'0 0.1
2017-Aug-17 14:30N 40°39' W 074°04'0 0.1
2017-Aug-17 14:00N 40°39' W 074°04'0 0.0
2017-Aug-17 13:30N 40°39' W 074°04'4 8.6
2017-Aug-17 13:00N 40°42' W 074°01'4 8.6
2017-Aug-17 12:30N 40°39' W 074°04'4 8.6
2017-Aug-17 12:00N 40°42' W 074°01'4 8.6
2017-Aug-17 11:30N 40°39' W 074°04'0 0.2
2017-Aug-17 11:00N 40°39' W 074°04'0 0.0
2017-Aug-17 10:30N 40°39' W 074°04'0 0.0
2017-Aug-17 10:00N 40°39' W 074°04'0 0.0
2017-Aug-17 09:31N 40°39' W 074°04'0 0.0
2017-Aug-17 09:00N 40°39' W 074°04'0 0.0
2017-Aug-17 08:30N 40°39' W 074°04'0 0.0
2017-Aug-17 08:00N 40°39' W 074°04'0 0.0
2017-Aug-17 07:30N 40°39' W 074°04'0 0.0
2017-Aug-17 07:00N 40°39' W 074°04'0 0.0
2017-Aug-17 06:30N 40°39' W 074°04'0 0.0
2017-Aug-17 06:00N 40°39' W 074°04'0 0.0
2017-Aug-17 05:30N 40°39' W 074°04'0 0.0
2017-Aug-17 05:00N 40°39' W 074°04'0 0.0
2017-Aug-17 04:30N 40°39' W 074°04'0 0.0
2017-Aug-17 04:00N 40°39' W 074°04'0 0.2
2017-Aug-17 03:31N 40°39' W 074°04'0 0.0
2017-Aug-17 03:00N 40°39' W 074°04'4 8.6
2017-Aug-17 02:30N 40°42' W 074°01'4 7.8
2017-Aug-17 01:57N 40°39' W 074°04'0 0.0
2017-Aug-17 01:31N 40°39' W 074°04'4 8.6
2017-Aug-17 01:00N 40°42' W 074°01'4 8.6
2017-Aug-17 00:30N 40°39' W 074°04'0 0.1
2017-Aug-17 00:00N 40°39' W 074°04'4 8.6
2017-Aug-16 23:30N 40°42' W 074°01'4 7.7
2017-Aug-16 22:57N 40°39' W 074°04'4 9.7
2017-Aug-16 22:30N 40°42' W 074°01'4 8.6
2017-Aug-16 22:00N 40°39' W 074°04'4 8.6
2017-Aug-16 21:30N 40°42' W 074°01'3 6.0
2017-Aug-16 21:00N 40°40' W 074°03'2 3.0
2017-Aug-16 20:31N 40°41' W 074°02'1 1.9
2017-Aug-16 20:01N 40°40' W 074°03'2 3.7
2017-Aug-16 19:30N 40°39' W 074°04'4 8.6
2017-Aug-16 19:00N 40°42' W 074°01'4 8.6
2017-Aug-16 18:30N 40°39' W 074°04'0 0.0
2017-Aug-16 18:00N 40°39' W 074°04'0 0.0
2017-Aug-16 17:30N 40°39' W 074°04'4 8.7
2017-Aug-16 17:00N 40°42' W 074°01'4 8.6
2017-Aug-16 16:30N 40°39' W 074°04'0 0.3
2017-Aug-16 16:00N 40°39' W 074°04'0 0.0
2017-Aug-16 15:30N 40°39' W 074°04'0 0.0
2017-Aug-16 15:00N 40°39' W 074°04'0 0.1
2017-Aug-16 14:29N 40°39' W 074°04'0 0.0
2017-Aug-16 13:59N 40°39' W 074°04'0 0.0
2017-Aug-16 13:29N 40°39' W 074°04'0 0.0
2017-Aug-16 12:59N 40°39' W 074°04'0 0.0
2017-Aug-16 12:29N 40°39' W 074°04'0 0.0
2017-Aug-16 11:59N 40°39' W 074°04'0 0.0
2017-Aug-16 11:29N 40°39' W 074°04'0 0.0
2017-Aug-16 10:59N 40°39' W 074°04'0 0.0
2017-Aug-16 10:29N 40°39' W 074°04'0 0.0
2017-Aug-16 09:59N 40°39' W 074°04'0 0.0
2017-Aug-16 09:29N 40°39' W 074°04'0 0.0
2017-Aug-16 08:59N 40°39' W 074°04'0 0.0
2017-Aug-16 08:29N 40°39' W 074°04'0 0.0
2017-Aug-16 07:59N 40°39' W 074°04'0 0.0
2017-Aug-16 07:29N 40°39' W 074°04'0 0.0
2017-Aug-16 06:59N 40°39' W 074°04'0 0.0
2017-Aug-16 06:29N 40°39' W 074°04'0 0.0
2017-Aug-16 05:59N 40°39' W 074°04'0 0.0
2017-Aug-16 05:29N 40°39' W 074°04'0 0.0
2017-Aug-16 04:59N 40°39' W 074°04'0 0.0
2017-Aug-16 04:29N 40°39' W 074°04'0 0.0
2017-Aug-16 03:59N 40°39' W 074°04'0 0.0
2017-Aug-16 03:29N 40°39' W 074°04'0 0.0
2017-Aug-16 02:59N 40°39' W 074°04'0 0.0
2017-Aug-16 02:29N 40°39' W 074°04'0 0.0
2017-Aug-16 01:59N 40°39' W 074°04'0 0.0
2017-Aug-16 01:29N 40°39' W 074°04'0 0.0
2017-Aug-16 00:59N 40°39' W 074°04'0 0.0
2017-Aug-16 00:29N 40°39' W 074°04'0 0.0
2017-Aug-15 23:59N 40°39' W 074°04'0 0.0
2017-Aug-15 23:29N 40°39' W 074°04'0 0.0
2017-Aug-15 22:59N 40°39' W 074°04'0 0.0
2017-Aug-15 22:29N 40°39' W 074°04'0 0.0
2017-Aug-15 21:59N 40°39' W 074°04'0 0.0
2017-Aug-15 21:29N 40°39' W 074°04'0 0.0
2017-Aug-15 20:59N 40°39' W 074°04'0 0.0
2017-Aug-15 20:29N 40°39' W 074°04'0 0.0
2017-Aug-15 19:59N 40°39' W 074°04'0 0.0
2017-Aug-15 19:29N 40°39' W 074°04'0 0.0
2017-Aug-15 18:59N 40°39' W 074°04'0 0.0
2017-Aug-15 18:29N 40°39' W 074°04'0 0.0
2017-Aug-15 17:59N 40°39' W 074°04'0 0.0
2017-Aug-15 17:29N 40°39' W 074°04'0 0.0
2017-Aug-15 16:59N 40°39' W 074°04'0 0.0
2017-Aug-15 16:29N 40°39' W 074°04'0 0.0
2017-Aug-15 15:59N 40°39' W 074°04'0 0.0
2017-Aug-15 15:29N 40°39' W 074°04'0 0.0
2017-Aug-15 14:59N 40°39' W 074°04'0 0.0
2017-Aug-15 14:29N 40°39' W 074°04'0 0.0
2017-Aug-15 13:59N 40°39' W 074°04'0 0.0
2017-Aug-15 13:29N 40°39' W 074°04'0 0.0
2017-Aug-15 12:59N 40°39' W 074°04'0 0.0
2017-Aug-15 12:29N 40°39' W 074°04'0 0.0
2017-Aug-15 11:59N 40°39' W 074°04'0 0.0
2017-Aug-15 11:29N 40°39' W 074°04'0 0.0
2017-Aug-15 10:59N 40°39' W 074°04'0 0.0
2017-Aug-15 10:29N 40°39' W 074°04'0 0.0
2017-Aug-15 09:59N 40°39' W 074°04'0 0.0
2017-Aug-15 09:29N 40°39' W 074°04'0 0.0
2017-Aug-15 08:59N 40°39' W 074°04'0 0.0
2017-Aug-15 08:29N 40°39' W 074°04'0 0.0
2017-Aug-15 07:59N 40°39' W 074°04'0 0.0
2017-Aug-15 07:29N 40°39' W 074°04'0 0.0
2017-Aug-15 06:59N 40°39' W 074°04'0 0.0
2017-Aug-15 06:29N 40°39' W 074°04'0 0.0
2017-Aug-15 05:59N 40°39' W 074°04'0 0.0
2017-Aug-15 05:29N 40°39' W 074°04'0 0.0
2017-Aug-15 04:59N 40°39' W 074°04'0 0.0
2017-Aug-15 04:29N 40°39' W 074°04'0 0.0
2017-Aug-15 03:59N 40°39' W 074°04'0 0.0
2017-Aug-15 03:29N 40°39' W 074°04'0 0.0
2017-Aug-15 02:56N 40°39' W 074°04'0 0.0
2017-Aug-15 02:29N 40°39' W 074°04'0 0.0
2017-Aug-15 01:59N 40°39' W 074°04'0 0.0
2017-Aug-15 01:29N 40°39' W 074°04'0 0.0
2017-Aug-15 00:59N 40°39' W 074°04'0 0.0
2017-Aug-15 00:29N 40°39' W 074°04'0 0.0
2017-Aug-14 23:59N 40°39' W 074°04'0 0.0
2017-Aug-14 23:29N 40°39' W 074°04'0 0.0
2017-Aug-14 22:59N 40°39' W 074°04'0 0.0
2017-Aug-14 22:29N 40°39' W 074°04'0 0.0
2017-Aug-14 21:56N 40°39' W 074°04'0 0.0
2017-Aug-14 21:29N 40°39' W 074°04'0 0.0
2017-Aug-14 20:59N 40°39' W 074°04'0 0.0
2017-Aug-14 20:29N 40°39' W 074°04'0 0.0
2017-Aug-14 19:59N 40°39' W 074°04'0 0.0
2017-Aug-14 19:29N 40°39' W 074°04'0 0.0
2017-Aug-14 18:59N 40°39' W 074°04'0 0.0
2017-Aug-14 18:29N 40°39' W 074°04'0 0.0
2017-Aug-14 17:59N 40°39' W 074°04'0 0.0
2017-Aug-14 17:29N 40°39' W 074°04'0 0.0
2017-Aug-14 16:56N 40°39' W 074°04'0 0.0
2017-Aug-14 16:29N 40°39' W 074°04'0 0.0
2017-Aug-14 15:56N 40°39' W 074°04'0 0.0
2017-Aug-14 15:29N 40°39' W 074°04'0 0.0
2017-Aug-14 14:59N 40°39' W 074°04'0 0.0
2017-Aug-14 14:29N 40°39' W 074°04'0 0.0
2017-Aug-14 13:59N 40°39' W 074°04'0 0.0
2017-Aug-14 13:29N 40°39' W 074°04'0 0.0
2017-Aug-14 12:59N 40°39' W 074°04'0 0.0
2017-Aug-14 12:26N 40°39' W 074°04'0 0.0
2017-Aug-14 11:59N 40°39' W 074°04'0 0.0
2017-Aug-14 11:29N 40°39' W 074°04'0 0.0
2017-Aug-14 10:59N 40°39' W 074°04'0 0.0
2017-Aug-14 10:29N 40°39' W 074°04'0 0.0
2017-Aug-14 09:56N 40°39' W 074°04'0 0.0
2017-Aug-14 09:29N 40°39' W 074°04'0 0.0
2017-Aug-14 08:59N 40°39' W 074°04'0 0.0
2017-Aug-14 08:26N 40°39' W 074°04'0 0.0
2017-Aug-14 07:59N 40°39' W 074°04'0 0.0
2017-Aug-14 07:29N 40°39' W 074°04'0 0.0
2017-Aug-14 06:59N 40°39' W 074°04'0 0.0
2017-Aug-14 06:29N 40°39' W 074°04'0 0.0
2017-Aug-14 05:59N 40°39' W 074°04'0 0.0
2017-Aug-14 05:29N 40°39' W 074°04'0 0.0
2017-Aug-14 04:56N 40°39' W 074°04'0 0.0
2017-Aug-14 04:29N 40°39' W 074°04'0 0.0
2017-Aug-14 03:59N 40°39' W 074°04'0 0.0
2017-Aug-14 03:29N 40°39' W 074°04'0 0.0
2017-Aug-14 02:59N 40°39' W 074°04'0 0.0
2017-Aug-14 02:29N 40°39' W 074°04'0 0.0
2017-Aug-14 01:59N 40°39' W 074°04'0 0.0
2017-Aug-14 01:29N 40°39' W 074°04'0 0.0
2017-Aug-14 00:59N 40°39' W 074°04'0 0.0
2017-Aug-14 00:29N 40°39' W 074°04'0 0.0
2017-Aug-13 23:59N 40°39' W 074°04'0 0.0
2017-Aug-13 23:29N 40°39' W 074°04'0 0.0
2017-Aug-13 22:59N 40°39' W 074°04'0 0.0
2017-Aug-13 22:29N 40°39' W 074°04'0 0.0
2017-Aug-13 21:59N 40°39' W 074°04'0 0.0
2017-Aug-13 21:29N 40°39' W 074°04'0 0.0
2017-Aug-13 20:59N 40°39' W 074°04'0 0.0
2017-Aug-13 20:29N 40°39' W 074°04'0 0.0
2017-Aug-13 19:59N 40°39' W 074°04'0 0.0
2017-Aug-13 19:29N 40°39' W 074°04'0 0.0
2017-Aug-13 18:59N 40°39' W 074°04'0 0.0
2017-Aug-13 18:26N 40°39' W 074°04'0 0.0
2017-Aug-13 17:59N 40°39' W 074°04'0 0.0
2017-Aug-13 17:29N 40°39' W 074°04'0 0.0
2017-Aug-13 16:59N 40°39' W 074°04'0 0.0
2017-Aug-13 16:29N 40°39' W 074°04'0 0.0
2017-Aug-13 15:59N 40°39' W 074°04'0 0.0
2017-Aug-13 15:29N 40°39' W 074°04'0 0.0
2017-Aug-13 14:59N 40°39' W 074°04'0 0.0
2017-Aug-13 14:29N 40°39' W 074°04'0 0.0
2017-Aug-13 13:59N 40°39' W 074°04'0 0.0
2017-Aug-13 13:29N 40°39' W 074°04'0 0.0
2017-Aug-13 12:59N 40°39' W 074°04'0 0.0
2017-Aug-13 12:29N 40°39' W 074°04'0 0.0
2017-Aug-13 11:59N 40°39' W 074°04'0 0.0
2017-Aug-13 11:29N 40°39' W 074°04'0 0.0
2017-Aug-13 10:59N 40°39' W 074°04'0 0.0
2017-Aug-13 10:29N 40°39' W 074°04'0 0.0
2017-Aug-13 09:59N 40°39' W 074°04'0 0.0
2017-Aug-13 09:29N 40°39' W 074°04'0 0.0
2017-Aug-13 08:59N 40°39' W 074°04'0 0.0
2017-Aug-13 08:29N 40°39' W 074°04'0 0.0
2017-Aug-13 07:59N 40°39' W 074°04'0 0.0
2017-Aug-13 07:29N 40°39' W 074°04'0 0.0
2017-Aug-13 06:59N 40°39' W 074°04'0 0.0
2017-Aug-13 06:29N 40°39' W 074°04'0 0.0
2017-Aug-13 05:59N 40°39' W 074°04'0 0.0
2017-Aug-13 05:29N 40°39' W 074°04'0 0.0
2017-Aug-13 04:59N 40°39' W 074°04'0 0.0
2017-Aug-13 04:29N 40°39' W 074°04'0 0.0
2017-Aug-13 03:59N 40°39' W 074°04'0 0.0
2017-Aug-13 03:29N 40°39' W 074°04'0 0.0
2017-Aug-13 02:59N 40°39' W 074°04'0 0.0
2017-Aug-13 02:26N 40°39' W 074°04'0 0.0
2017-Aug-13 01:59N 40°39' W 074°04'0 0.0
2017-Aug-13 01:29N 40°39' W 074°04'0 0.0
2017-Aug-13 00:56N 40°39' W 074°04'0 0.0
2017-Aug-13 00:29N 40°39' W 074°04'0 0.0
2017-Aug-12 23:59N 40°39' W 074°04'0 0.0
2017-Aug-12 23:29N 40°39' W 074°04'0 0.0
2017-Aug-12 22:59N 40°39' W 074°04'0 0.0
2017-Aug-12 22:29N 40°39' W 074°04'0 0.0
2017-Aug-12 21:59N 40°39' W 074°04'0 0.0
2017-Aug-12 21:29N 40°39' W 074°04'0 0.0
2017-Aug-12 20:59N 40°39' W 074°04'0 0.0
2017-Aug-12 20:29N 40°39' W 074°04'0 0.0
2017-Aug-12 19:59N 40°39' W 074°04'0 0.0
2017-Aug-12 19:29N 40°39' W 074°04'0 0.0
2017-Aug-12 18:59N 40°39' W 074°04'0 0.0
2017-Aug-12 18:26N 40°39' W 074°04'0 0.0
2017-Aug-12 17:59N 40°39' W 074°04'0 0.0
2017-Aug-12 17:29N 40°39' W 074°04'0 0.0
2017-Aug-12 16:59N 40°39' W 074°04'0 0.0
2017-Aug-12 16:29N 40°39' W 074°04'0 0.0
2017-Aug-12 15:59N 40°39' W 074°04'0 0.0
2017-Aug-12 15:29N 40°39' W 074°04'0 0.0
2017-Aug-12 14:59N 40°39' W 074°04'0 0.0
2017-Aug-12 14:29N 40°39' W 074°04'0 0.0
2017-Aug-12 13:59N 40°39' W 074°04'0 0.0
2017-Aug-12 13:29N 40°39' W 074°04'0 0.0
2017-Aug-12 12:59N 40°39' W 074°04'0 0.0
2017-Aug-12 12:29N 40°39' W 074°04'0 0.0
2017-Aug-12 11:59N 40°39' W 074°04'0 0.0
2017-Aug-12 11:29N 40°39' W 074°04'0 0.0
2017-Aug-12 10:59N 40°39' W 074°04'0 0.0
2017-Aug-12 10:29N 40°39' W 074°04'0 0.0
2017-Aug-12 09:59N 40°39' W 074°04'0 0.0
2017-Aug-12 09:29N 40°39' W 074°04'0 0.0
2017-Aug-12 08:59N 40°39' W 074°04'0 0.0
2017-Aug-12 08:29N 40°39' W 074°04'0 0.0
2017-Aug-12 07:59N 40°39' W 074°04'0 0.0
2017-Aug-12 07:29N 40°39' W 074°04'0 0.0
2017-Aug-12 06:59N 40°39' W 074°04'0 0.0
2017-Aug-12 06:29N 40°39' W 074°04'0 0.0
2017-Aug-12 05:59N 40°39' W 074°04'0 0.0
2017-Aug-12 05:29N 40°39' W 074°04'0 0.0
2017-Aug-12 04:59N 40°39' W 074°04'0 0.0
2017-Aug-12 04:29N 40°39' W 074°04'0 0.0
2017-Aug-12 03:59N 40°39' W 074°04'0 0.0
2017-Aug-12 03:29N 40°39' W 074°04'0 0.0
2017-Aug-12 02:59N 40°39' W 074°04'0 0.0
2017-Aug-12 02:29N 40°39' W 074°04'0 0.0
2017-Aug-12 01:59N 40°39' W 074°04'0 0.0
2017-Aug-12 01:29N 40°39' W 074°04'0 0.0
2017-Aug-12 00:59N 40°39' W 074°04'0 0.0
2017-Aug-12 00:29N 40°39' W 074°04'0 0.0
2017-Aug-11 23:59N 40°39' W 074°04'0 0.0
2017-Aug-11 23:29N 40°39' W 074°04'0 0.0
2017-Aug-11 22:59N 40°39' W 074°04'0 0.0
2017-Aug-11 22:29N 40°39' W 074°04'0 0.0
2017-Aug-11 21:59N 40°39' W 074°04'0 0.0
2017-Aug-11 21:29N 40°39' W 074°04'0 0.0
2017-Aug-11 20:59N 40°39' W 074°04'0 0.0
2017-Aug-11 20:29N 40°39' W 074°04'0 0.0
2017-Aug-11 19:59N 40°39' W 074°04'0 0.0
2017-Aug-11 19:29N 40°39' W 074°04'0 0.0
2017-Aug-11 18:59N 40°39' W 074°04'0 0.0
2017-Aug-11 18:29N 40°39' W 074°04'0 0.0
2017-Aug-11 17:59N 40°39' W 074°04'0 0.0
2017-Aug-11 17:26N 40°39' W 074°04'0 0.0
2017-Aug-11 16:59N 40°39' W 074°04'0 0.0
2017-Aug-11 16:29N 40°39' W 074°04'0 0.0
2017-Aug-11 15:59N 40°39' W 074°04'0 0.0
2017-Aug-11 15:29N 40°39' W 074°04'0 0.0
2017-Aug-11 14:59N 40°39' W 074°04'0 0.0
2017-Aug-11 14:29N 40°39' W 074°04'0 0.0
2017-Aug-11 13:29N 40°39' W 074°04'0 0.0
2017-Aug-11 12:59N 40°39' W 074°04'0 0.0
2017-Aug-11 12:29N 40°39' W 074°04'0 0.0
2017-Aug-11 11:59N 40°39' W 074°04'0 0.0
2017-Aug-11 11:29N 40°39' W 074°04'0 0.0
2017-Aug-11 10:59N 40°39' W 074°04'0 0.0
2017-Aug-11 10:29N 40°39' W 074°04'0 0.0
2017-Aug-11 09:59N 40°39' W 074°04'0 0.0
2017-Aug-11 09:29N 40°39' W 074°04'0 0.0
2017-Aug-11 08:59N 40°39' W 074°04'0 0.0
2017-Aug-11 08:29N 40°39' W 074°04'0 0.0
2017-Aug-11 07:59N 40°39' W 074°04'0 0.0
2017-Aug-11 07:29N 40°39' W 074°04'0 0.0
2017-Aug-11 06:59N 40°39' W 074°04'0 0.0
2017-Aug-11 06:29N 40°39' W 074°04'0 0.0
2017-Aug-11 05:59N 40°39' W 074°04'0 0.0
2017-Aug-11 05:29N 40°39' W 074°04'0 0.0
2017-Aug-11 04:59N 40°39' W 074°04'0 0.0
2017-Aug-11 04:29N 40°39' W 074°04'0 0.0
2017-Aug-11 03:59N 40°39' W 074°04'0 0.0
2017-Aug-11 03:29N 40°39' W 074°04'0 0.0
2017-Aug-11 02:59N 40°39' W 074°04'0 0.0
2017-Aug-11 02:29N 40°39' W 074°04'0 0.0
2017-Aug-11 01:59N 40°39' W 074°04'0 0.0
2017-Aug-11 01:29N 40°39' W 074°04'0 0.0
2017-Aug-11 00:59N 40°39' W 074°04'0 0.0
2017-Aug-11 00:29N 40°39' W 074°04'0 0.0
2017-Aug-10 23:59N 40°39' W 074°04'0 0.0
2017-Aug-10 23:29N 40°39' W 074°04'0 0.0
2017-Aug-10 22:59N 40°39' W 074°04'0 0.0
2017-Aug-10 22:29N 40°39' W 074°04'0 0.0
2017-Aug-10 21:59N 40°39' W 074°04'0 0.0
2017-Aug-10 21:29N 40°39' W 074°04'0 0.0
2017-Aug-10 20:59N 40°39' W 074°04'0 0.0
2017-Aug-10 20:29N 40°39' W 074°04'0 0.0
2017-Aug-10 19:59N 40°39' W 074°04'0 0.0
2017-Aug-10 19:29N 40°39' W 074°04'0 0.0
2017-Aug-10 18:59N 40°39' W 074°04'0 0.0
2017-Aug-10 18:29N 40°39' W 074°04'0 0.0
2017-Aug-10 17:59N 40°39' W 074°04'0 0.0
2017-Aug-10 17:29N 40°39' W 074°04'0 0.0
2017-Aug-10 16:59N 40°39' W 074°04'0 0.0
2017-Aug-10 16:29N 40°39' W 074°04'0 0.0
2017-Aug-10 15:59N 40°39' W 074°04'0 0.0
2017-Aug-10 15:29N 40°39' W 074°04'0 0.0
2017-Aug-10 14:59N 40°39' W 074°04'0 0.0
2017-Aug-10 14:29N 40°39' W 074°04'0 0.0
2017-Aug-10 13:56N 40°39' W 074°04'0 0.0
2017-Aug-10 13:29N 40°39' W 074°04'0 0.0
2017-Aug-10 12:59N 40°39' W 074°04'0 0.0
2017-Aug-10 12:29N 40°39' W 074°04'0 0.0
2017-Aug-10 11:59N 40°39' W 074°04'0 0.0
2017-Aug-10 11:29N 40°39' W 074°04'0 0.0
2017-Aug-10 10:59N 40°39' W 074°04'0 0.0
2017-Aug-10 10:29N 40°39' W 074°04'0 0.0
2017-Aug-10 09:59N 40°39' W 074°04'0 0.0
2017-Aug-10 09:29N 40°39' W 074°04'0 0.0
2017-Aug-10 08:59N 40°39' W 074°04'0 0.0
2017-Aug-10 08:29N 40°39' W 074°04'0 0.0
2017-Aug-10 07:59N 40°39' W 074°04'0 0.0
2017-Aug-10 07:29N 40°39' W 074°04'0 0.0
2017-Aug-10 06:59N 40°39' W 074°04'0 0.0
2017-Aug-10 06:29N 40°39' W 074°04'0 0.0
2017-Aug-10 05:59N 40°39' W 074°04'0 0.0
2017-Aug-10 05:29N 40°39' W 074°04'0 0.0
2017-Aug-10 04:59N 40°39' W 074°04'0 0.0
2017-Aug-10 04:29N 40°39' W 074°04'0 0.0
2017-Aug-10 03:59N 40°39' W 074°04'0 0.0
2017-Aug-10 03:29N 40°39' W 074°04'0 0.0
2017-Aug-10 02:56N 40°39' W 074°04'0 0.0
2017-Aug-10 02:29N 40°39' W 074°04'0 0.0
2017-Aug-10 01:59N 40°39' W 074°04'0 0.0
2017-Aug-10 01:29N 40°39' W 074°04'0 0.0
2017-Aug-10 00:59N 40°39' W 074°04'0 0.0
2017-Aug-10 00:29N 40°39' W 074°04'0 0.0
2017-Aug-09 23:59N 40°39' W 074°04'0 0.0
2017-Aug-09 23:29N 40°39' W 074°04'0 0.0
2017-Aug-09 22:59N 40°39' W 074°04'0 0.0
2017-Aug-09 22:29N 40°39' W 074°04'0 0.0
2017-Aug-09 21:59N 40°39' W 074°04'0 0.0
2017-Aug-09 21:29N 40°39' W 074°04'0 0.0
2017-Aug-09 20:59N 40°39' W 074°04'0 0.0
2017-Aug-09 20:29N 40°39' W 074°04'0 0.0
2017-Aug-09 19:59N 40°39' W 074°04'0 0.0
2017-Aug-09 19:29N 40°39' W 074°04'0 0.0
2017-Aug-09 18:59N 40°39' W 074°04'0 0.0
2017-Aug-09 18:29N 40°39' W 074°04'0 0.0
2017-Aug-09 17:59N 40°39' W 074°04'0 0.0
2017-Aug-09 17:29N 40°39' W 074°04'0 0.0
2017-Aug-09 16:59N 40°39' W 074°04'0 0.0
2017-Aug-09 16:26N 40°39' W 074°04'0 0.0
2017-Aug-09 15:59N 40°39' W 074°04'0 0.0
2017-Aug-09 15:29N 40°39' W 074°04'0 0.0
2017-Aug-09 14:59N 40°39' W 074°04'0 0.0
2017-Aug-09 14:29N 40°39' W 074°04'0 0.0
2017-Aug-09 13:59N 40°39' W 074°04'0 0.0
2017-Aug-09 13:29N 40°39' W 074°04'0 0.0
2017-Aug-09 12:59N 40°39' W 074°04'0 0.0
2017-Aug-09 12:29N 40°39' W 074°04'0 0.0
2017-Aug-09 11:59N 40°39' W 074°04'0 0.0
2017-Aug-09 11:29N 40°39' W 074°04'0 0.0
2017-Aug-09 10:59N 40°39' W 074°04'0 0.0
2017-Aug-09 10:29N 40°39' W 074°04'0 0.0
2017-Aug-09 09:59N 40°39' W 074°04'0 0.0
2017-Aug-09 09:26N 40°39' W 074°04'0 0.0
2017-Aug-09 08:59N 40°39' W 074°04'0 0.0
2017-Aug-09 08:26N 40°39' W 074°04'0 0.0
2017-Aug-09 07:59N 40°39' W 074°04'0 0.0
2017-Aug-09 07:29N 40°39' W 074°04'0 0.0
2017-Aug-09 06:59N 40°39' W 074°04'0 0.0
2017-Aug-09 06:29N 40°39' W 074°04'0 0.0
2017-Aug-09 05:59N 40°39' W 074°04'0 0.0
2017-Aug-09 05:29N 40°39' W 074°04'  

Dump ship's entire track history